createdAt,value
2016-09-08T00:00:36.435Z,0
2016-09-08T00:01:36.374Z,0
2016-09-08T00:02:36.392Z,0
2016-09-08T00:03:36.680Z,0
2016-09-08T00:04:36.393Z,0
2016-09-08T00:05:36.427Z,0
2016-09-08T00:06:36.435Z,0
2016-09-08T00:07:36.516Z,0
2016-09-08T00:08:37.244Z,0
2016-09-08T00:09:36.383Z,0
2016-09-08T00:10:36.420Z,0
2016-09-08T00:11:37.462Z,0
2016-09-08T00:12:37.010Z,0
2016-09-08T00:13:37.095Z,0
2016-09-08T00:14:36.385Z,0
2016-09-08T00:15:36.322Z,0
2016-09-08T00:16:36.341Z,0
2016-09-08T00:17:36.932Z,0
2016-09-08T00:18:36.620Z,0
2016-09-08T00:19:36.391Z,0
2016-09-08T00:20:36.923Z,0
2016-09-08T00:21:36.389Z,0
2016-09-08T00:22:36.379Z,0
2016-09-08T00:23:36.451Z,0
2016-09-08T00:24:36.362Z,0
2016-09-08T00:25:36.335Z,0
2016-09-08T00:26:36.365Z,0
2016-09-08T00:27:36.773Z,0
2016-09-08T00:28:37.014Z,0
2016-09-08T00:29:36.363Z,0
2016-09-08T00:30:36.395Z,0
2016-09-08T00:31:36.345Z,0
2016-09-08T00:32:36.348Z,0
2016-09-08T00:33:36.363Z,0
2016-09-08T00:34:36.397Z,0
2016-09-08T00:35:37.643Z,0
2016-09-08T00:36:37.199Z,0
2016-09-08T00:37:36.796Z,0
2016-09-08T00:38:36.393Z,0
2016-09-08T00:39:36.442Z,0
2016-09-08T00:40:36.384Z,0
2016-09-08T00:41:36.403Z,0
2016-09-08T00:42:36.410Z,0
2016-09-08T00:43:36.350Z,0
2016-09-08T00:44:36.365Z,0
2016-09-08T00:45:36.443Z,0
2016-09-08T00:46:36.445Z,0
2016-09-08T00:47:36.709Z,0
2016-09-08T00:48:36.399Z,0
2016-09-08T00:49:36.394Z,0
2016-09-08T00:50:36.370Z,0
2016-09-08T00:51:36.364Z,0
2016-09-08T00:52:36.400Z,0
2016-09-08T00:53:36.393Z,0
2016-09-08T00:54:36.451Z,0
2016-09-08T00:55:36.702Z,0
2016-09-08T00:56:36.439Z,0
2016-09-08T00:57:36.834Z,0
2016-09-08T00:58:36.409Z,0
2016-09-08T00:59:36.602Z,0
2016-09-08T01:00:36.392Z,0
2016-09-08T01:01:36.443Z,0
2016-09-08T01:02:36.402Z,0
2016-09-08T01:03:36.438Z,0
2016-09-08T01:04:36.399Z,0
2016-09-08T01:05:36.699Z,0
2016-09-08T01:06:36.398Z,0
2016-09-08T01:07:36.480Z,0
2016-09-08T01:08:36.470Z,0
2016-09-08T01:09:36.461Z,0
2016-09-08T01:10:36.786Z,0
2016-09-08T01:11:36.812Z,0
2016-09-08T01:12:36.443Z,0
2016-09-08T01:13:36.460Z,0
2016-09-08T01:14:36.509Z,0
2016-09-08T01:15:36.402Z,0
2016-09-08T01:16:36.452Z,0
2016-09-08T01:17:36.912Z,0
2016-09-08T01:18:36.407Z,0
2016-09-08T01:19:36.366Z,0
2016-09-08T01:20:37.052Z,0
2016-09-08T01:21:36.617Z,0
2016-09-08T01:22:36.417Z,0
2016-09-08T01:23:36.425Z,0
2016-09-08T01:24:36.448Z,0
2016-09-08T01:25:36.433Z,0
2016-09-08T01:26:36.507Z,0
2016-09-08T01:27:36.471Z,0
2016-09-08T01:28:37.101Z,0
2016-09-08T01:29:36.531Z,0
2016-09-08T01:30:36.459Z,0
2016-09-08T01:31:36.428Z,0
2016-09-08T01:32:37.086Z,0
2016-09-08T01:33:36.499Z,0
2016-09-08T01:34:36.513Z,0
2016-09-08T01:35:36.529Z,0
2016-09-08T01:36:36.548Z,0
2016-09-08T01:37:36.585Z,0
2016-09-08T01:38:36.490Z,0
2016-09-08T01:39:36.517Z,0
2016-09-08T01:40:36.492Z,0
2016-09-08T01:41:36.594Z,0
2016-09-08T01:42:36.557Z,0
2016-09-08T01:43:36.506Z,0
2016-09-08T01:44:36.571Z,0
2016-09-08T01:45:36.507Z,0
2016-09-08T01:46:36.526Z,0
2016-09-08T01:47:36.461Z,0
2016-09-08T01:48:36.458Z,0
2016-09-08T01:49:36.474Z,0
2016-09-08T01:50:36.521Z,0
2016-09-08T01:51:36.473Z,0
2016-09-08T01:52:36.505Z,0
2016-09-08T01:53:36.473Z,0
2016-09-08T01:54:36.482Z,0
2016-09-08T01:55:36.470Z,0
2016-09-08T01:56:36.460Z,0
2016-09-08T01:57:36.479Z,0
2016-09-08T01:58:36.443Z,0
2016-09-08T01:59:36.489Z,0
2016-09-08T02:00:36.466Z,0
2016-09-08T02:01:36.486Z,0
2016-09-08T02:02:36.458Z,0
2016-09-08T02:03:36.459Z,0
2016-09-08T02:04:36.497Z,0
2016-09-08T02:05:36.480Z,0
2016-09-08T02:06:36.428Z,0
2016-09-08T02:07:36.454Z,0
2016-09-08T02:08:36.430Z,0
2016-09-08T02:09:36.489Z,0
2016-09-08T02:10:36.467Z,0
2016-09-08T02:11:36.459Z,0
2016-09-08T02:12:36.465Z,0
2016-09-08T02:13:36.525Z,0
2016-09-08T02:14:36.481Z,0
2016-09-08T02:15:36.523Z,0
2016-09-08T02:16:36.448Z,0
2016-09-08T02:17:36.528Z,0
2016-09-08T02:18:36.538Z,0
2016-09-08T02:19:36.440Z,0
2016-09-08T02:20:36.471Z,0
2016-09-08T02:21:36.478Z,0
2016-09-08T02:22:36.461Z,0
2016-09-08T02:23:36.471Z,0
2016-09-08T02:24:36.558Z,0
2016-09-08T02:25:36.518Z,0
2016-09-08T02:26:36.496Z,0
2016-09-08T02:27:36.445Z,0
2016-09-08T02:28:36.460Z,0
2016-09-08T02:29:36.471Z,0
2016-09-08T02:30:36.463Z,0
2016-09-08T02:31:36.503Z,0
2016-09-08T02:32:36.463Z,0
2016-09-08T02:33:36.482Z,0
2016-09-08T02:34:36.462Z,0
2016-09-08T02:35:36.484Z,0
2016-09-08T02:36:36.519Z,0
2016-09-08T02:37:36.490Z,0
2016-09-08T02:38:36.490Z,0
2016-09-08T02:39:36.506Z,0
2016-09-08T02:40:36.556Z,0
2016-09-08T02:41:36.502Z,0
2016-09-08T02:42:36.538Z,0
2016-09-08T02:43:36.598Z,0
2016-09-08T02:44:36.494Z,0
2016-09-08T02:45:36.521Z,0
2016-09-08T02:46:36.551Z,0
2016-09-08T02:47:36.515Z,0
2016-09-08T02:48:36.478Z,0
2016-09-08T02:49:36.542Z,0
2016-09-08T02:50:36.535Z,0
2016-09-08T02:51:36.529Z,0
2016-09-08T02:52:36.564Z,0
2016-09-08T02:53:36.529Z,0
2016-09-08T02:54:36.562Z,0
2016-09-08T02:55:36.538Z,0
2016-09-08T02:56:36.563Z,0
2016-09-08T02:57:36.624Z,0
2016-09-08T02:58:36.547Z,0
2016-09-08T02:59:36.555Z,0
2016-09-08T03:00:36.573Z,0
2016-09-08T03:01:36.503Z,0
2016-09-08T03:02:36.474Z,0
2016-09-08T03:03:36.462Z,0
2016-09-08T03:04:36.525Z,0
2016-09-08T03:05:36.544Z,0
2016-09-08T03:06:36.523Z,0
2016-09-08T03:07:36.506Z,0
2016-09-08T03:08:36.495Z,0
2016-09-08T03:09:36.506Z,0
2016-09-08T03:10:36.495Z,0
2016-09-08T03:11:36.560Z,0
2016-09-08T03:12:36.481Z,0
2016-09-08T03:13:36.538Z,0
2016-09-08T03:14:36.507Z,0
2016-09-08T03:15:36.530Z,0
2016-09-08T03:16:36.478Z,0
2016-09-08T03:17:36.584Z,0
2016-09-08T03:18:36.512Z,0
2016-09-08T03:19:36.575Z,0
2016-09-08T03:20:36.552Z,0
2016-09-08T03:21:36.553Z,0
2016-09-08T03:22:36.553Z,0
2016-09-08T03:23:36.528Z,0
2016-09-08T03:24:36.493Z,0
2016-09-08T03:25:36.531Z,0
2016-09-08T03:26:36.505Z,0
2016-09-08T03:27:36.527Z,0
2016-09-08T03:28:36.492Z,0
2016-09-08T03:29:36.569Z,0
2016-09-08T03:30:36.502Z,0
2016-09-08T03:31:36.511Z,0
2016-09-08T03:32:36.537Z,0
2016-09-08T03:33:36.538Z,0
2016-09-08T03:34:36.553Z,0
2016-09-08T03:35:36.500Z,0
2016-09-08T03:36:36.520Z,0
2016-09-08T03:37:36.524Z,0
2016-09-08T03:38:36.542Z,0
2016-09-08T03:39:36.524Z,0
2016-09-08T03:40:36.524Z,0
2016-09-08T03:41:36.535Z,0
2016-09-08T03:42:36.567Z,0
2016-09-08T03:43:36.528Z,0
2016-09-08T03:44:36.521Z,0
2016-09-08T03:45:36.559Z,0
2016-09-08T03:46:36.536Z,0
2016-09-08T03:47:36.590Z,0
2016-09-08T03:48:36.595Z,0
2016-09-08T03:49:36.604Z,0
2016-09-08T03:50:36.611Z,0
2016-09-08T03:51:36.560Z,0
2016-09-08T03:52:36.518Z,0
2016-09-08T03:53:36.538Z,0
2016-09-08T03:54:36.544Z,0
2016-09-08T03:55:36.559Z,0
2016-09-08T03:56:36.543Z,0
2016-09-08T03:57:36.554Z,0
2016-09-08T03:58:36.558Z,0
2016-09-08T03:59:36.599Z,0
2016-09-08T04:00:36.529Z,0
2016-09-08T04:01:36.609Z,0
2016-09-08T04:02:36.569Z,0
2016-09-08T04:03:36.617Z,0
2016-09-08T04:04:36.551Z,0
2016-09-08T04:05:36.543Z,0
2016-09-08T04:06:36.585Z,0
2016-09-08T04:07:36.647Z,0
2016-09-08T04:08:36.568Z,0
2016-09-08T04:09:36.598Z,0
2016-09-08T04:10:36.647Z,0
2016-09-08T04:11:36.560Z,0
2016-09-08T04:12:36.572Z,0
2016-09-08T04:13:36.577Z,0
2016-09-08T04:14:36.589Z,0
2016-09-08T04:15:36.620Z,0
2016-09-08T04:16:36.592Z,0
2016-09-08T04:17:36.585Z,0
2016-09-08T04:18:36.600Z,0
2016-09-08T04:19:36.581Z,0
2016-09-08T04:20:36.557Z,0
2016-09-08T04:21:36.541Z,0
2016-09-08T04:22:36.526Z,0
2016-09-08T04:23:36.546Z,0
2016-09-08T04:24:36.568Z,0
2016-09-08T04:25:36.557Z,0
2016-09-08T04:26:36.605Z,0
2016-09-08T04:27:36.539Z,0
2016-09-08T04:28:36.582Z,0
2016-09-08T04:29:36.616Z,0
2016-09-08T04:30:36.564Z,0
2016-09-08T04:31:36.569Z,0
2016-09-08T04:32:36.585Z,0
2016-09-08T04:33:36.619Z,0
2016-09-08T04:34:36.614Z,0
2016-09-08T04:35:36.575Z,0
2016-09-08T04:36:36.570Z,0
2016-09-08T04:37:36.544Z,0
2016-09-08T04:38:36.566Z,0
2016-09-08T04:39:36.601Z,0
2016-09-08T04:40:36.640Z,0
2016-09-08T04:41:36.585Z,0
2016-09-08T04:42:36.599Z,0
2016-09-08T04:43:36.599Z,0
2016-09-08T04:44:36.600Z,0
2016-09-08T04:45:36.634Z,0
2016-09-08T04:46:36.579Z,0
2016-09-08T04:47:36.604Z,5
2016-09-08T04:48:36.600Z,5
2016-09-08T04:49:36.619Z,5
2016-09-08T04:50:36.572Z,5
2016-09-08T04:51:36.631Z,5
2016-09-08T04:52:36.588Z,5
2016-09-08T04:53:36.584Z,5
2016-09-08T04:54:36.592Z,5
2016-09-08T04:55:36.579Z,5
2016-09-08T04:56:36.653Z,10
2016-09-08T04:57:36.571Z,10
2016-09-08T04:58:36.626Z,10
2016-09-08T04:59:36.598Z,10
2016-09-08T05:00:36.638Z,10
2016-09-08T05:01:36.612Z,10
2016-09-08T05:02:36.572Z,15
2016-09-08T05:03:36.602Z,15
2016-09-08T05:04:36.623Z,15
2016-09-08T05:05:36.574Z,15
2016-09-08T05:06:36.604Z,20
2016-09-08T05:07:36.599Z,20
2016-09-08T05:08:36.618Z,20
2016-09-08T05:09:36.641Z,20
2016-09-08T05:10:36.649Z,25
2016-09-08T05:11:36.693Z,25
2016-09-08T05:12:36.586Z,25
2016-09-08T05:13:36.646Z,25
2016-09-08T05:14:36.618Z,25
2016-09-08T05:15:36.644Z,30
2016-09-08T05:16:36.633Z,30
2016-09-08T05:17:36.620Z,30
2016-09-08T05:18:36.738Z,35
2016-09-08T05:19:36.623Z,35
2016-09-08T05:20:36.640Z,35
2016-09-08T05:21:36.618Z,40
2016-09-08T05:22:36.641Z,40
2016-09-08T05:23:36.604Z,40
2016-09-08T05:24:36.597Z,40
2016-09-08T05:25:36.726Z,45
2016-09-08T05:26:36.721Z,45
2016-09-08T05:27:36.593Z,45
2016-09-08T05:28:36.658Z,50
2016-09-08T05:29:36.665Z,50
2016-09-08T05:30:37.695Z,50
2016-09-08T05:31:37.117Z,50
2016-09-08T05:32:36.863Z,55
2016-09-08T05:33:36.603Z,55
2016-09-08T05:34:36.669Z,55
2016-09-08T05:35:36.619Z,55
2016-09-08T05:36:37.034Z,55
2016-09-08T05:37:36.983Z,60
2016-09-08T05:38:37.404Z,60
2016-09-08T05:39:36.651Z,65
2016-09-08T05:40:37.103Z,65
2016-09-08T05:41:36.664Z,65
2016-09-08T05:42:36.664Z,70
2016-09-08T05:43:36.674Z,70
2016-09-08T05:44:36.752Z,70
2016-09-08T05:45:36.692Z,70
2016-09-08T05:46:36.697Z,75
2016-09-08T05:47:36.663Z,75
2016-09-08T05:48:36.697Z,75
2016-09-08T05:49:36.680Z,75
2016-09-08T05:50:36.666Z,80
2016-09-08T05:51:36.697Z,80
2016-09-08T05:52:36.695Z,80
2016-09-08T05:53:36.701Z,80
2016-09-08T05:54:36.719Z,85
2016-09-08T05:55:36.680Z,85
2016-09-08T05:56:36.678Z,85
2016-09-08T05:57:36.754Z,85
2016-09-08T05:58:36.663Z,85
2016-09-08T05:59:36.710Z,90
2016-09-08T06:00:36.655Z,90
2016-09-08T06:01:36.645Z,90
2016-09-08T06:02:36.626Z,90
2016-09-08T06:03:36.675Z,95
2016-09-08T06:04:36.651Z,95
2016-09-08T06:05:36.665Z,95
2016-09-08T06:06:36.637Z,95
2016-09-08T06:07:36.695Z,95
2016-09-08T06:08:36.670Z,100
2016-09-08T06:09:36.664Z,100
2016-09-08T06:10:36.670Z,100
2016-09-08T06:11:36.655Z,100
2016-09-08T06:12:36.670Z,100
2016-09-08T06:13:36.704Z,105
2016-09-08T06:14:36.732Z,105
2016-09-08T06:15:36.726Z,105
2016-09-08T06:16:36.711Z,105
2016-09-08T06:17:36.685Z,105
2016-09-08T06:18:36.665Z,105
2016-09-08T06:19:36.701Z,110
2016-09-08T06:20:36.714Z,110
2016-09-08T06:21:36.685Z,110
2016-09-08T06:22:36.696Z,110
2016-09-08T06:23:36.685Z,110
2016-09-08T06:24:36.682Z,115
2016-09-08T06:25:36.667Z,115
2016-09-08T06:26:36.743Z,115
2016-09-08T06:27:36.711Z,115
2016-09-08T06:28:36.658Z,115
2016-09-08T06:29:36.692Z,120
2016-09-08T06:30:36.672Z,120
2016-09-08T06:31:36.682Z,115
2016-09-08T06:32:36.666Z,115
2016-09-08T06:33:36.715Z,115
2016-09-08T06:34:36.672Z,115
2016-09-08T06:35:36.686Z,120
2016-09-08T06:36:36.711Z,120
2016-09-08T06:37:36.700Z,120
2016-09-08T06:38:36.696Z,120
2016-09-08T06:39:36.746Z,120
2016-09-08T06:40:36.684Z,120
2016-09-08T06:41:36.694Z,125
2016-09-08T06:42:36.681Z,125
2016-09-08T06:43:36.683Z,125
2016-09-08T06:44:36.731Z,125
2016-09-08T06:45:36.744Z,125
2016-09-08T06:46:36.756Z,125
2016-09-08T06:47:36.752Z,125
2016-09-08T06:48:36.734Z,125
2016-09-08T06:49:36.683Z,125
2016-09-08T06:50:36.748Z,130
2016-09-08T06:51:36.697Z,130
2016-09-08T06:52:36.729Z,130
2016-09-08T06:53:36.729Z,130
2016-09-08T06:54:36.717Z,130
2016-09-08T06:55:36.736Z,130
2016-09-08T06:56:36.721Z,130
2016-09-08T06:57:36.758Z,130
2016-09-08T06:58:36.740Z,130
2016-09-08T06:59:36.744Z,130
2016-09-08T07:00:36.734Z,130
2016-09-08T07:01:36.777Z,130
2016-09-08T07:02:36.734Z,130
2016-09-08T07:03:36.743Z,130
2016-09-08T07:04:36.737Z,130
2016-09-08T07:05:36.767Z,130
2016-09-08T07:06:36.765Z,130
2016-09-08T07:07:36.729Z,135
2016-09-08T07:08:36.719Z,135
2016-09-08T07:09:36.719Z,135
2016-09-08T07:10:36.908Z,135
2016-09-08T07:11:36.687Z,135
2016-09-08T07:12:36.713Z,135
2016-09-08T07:13:36.732Z,135
2016-09-08T07:14:36.698Z,135
2016-09-08T07:15:36.718Z,135
2016-09-08T07:16:36.794Z,135
2016-09-08T07:17:36.717Z,135
2016-09-08T07:18:36.734Z,135
2016-09-08T07:19:36.745Z,140
2016-09-08T07:20:36.775Z,140
2016-09-08T07:21:36.729Z,140
2016-09-08T07:22:36.714Z,140
2016-09-08T07:23:36.720Z,140
2016-09-08T07:24:36.690Z,140
2016-09-08T07:25:36.766Z,140
2016-09-08T07:26:36.704Z,140
2016-09-08T07:27:36.745Z,140
2016-09-08T07:28:36.792Z,140
2016-09-08T07:29:36.771Z,140
2016-09-08T07:30:36.774Z,140
2016-09-08T07:31:36.841Z,140
2016-09-08T07:32:36.891Z,140
2016-09-08T07:33:36.780Z,140
2016-09-08T07:34:36.865Z,140
2016-09-08T07:35:36.843Z,140
2016-09-08T07:36:36.746Z,140
2016-09-08T07:37:36.799Z,140
2016-09-08T07:38:36.770Z,140
2016-09-08T07:39:36.765Z,140
2016-09-08T07:40:36.728Z,140
2016-09-08T07:41:36.766Z,140
2016-09-08T07:42:36.828Z,140
2016-09-08T07:43:36.706Z,140
2016-09-08T07:44:36.774Z,140
2016-09-08T07:45:36.777Z,140
2016-09-08T07:46:36.773Z,140
2016-09-08T07:47:36.762Z,140
2016-09-08T07:48:36.778Z,140
2016-09-08T07:49:36.771Z,140
2016-09-08T07:50:36.841Z,140
2016-09-08T07:51:36.793Z,140
2016-09-08T07:52:36.816Z,140
2016-09-08T07:53:36.849Z,140
2016-09-08T07:54:36.753Z,140
2016-09-08T07:55:36.774Z,140
2016-09-08T07:56:36.807Z,140
2016-09-08T07:57:36.792Z,140
2016-09-08T07:58:36.784Z,145
2016-09-08T07:59:36.824Z,145
2016-09-08T08:00:36.903Z,140
2016-09-08T08:01:36.794Z,145
2016-09-08T08:02:36.885Z,145
2016-09-08T08:03:36.750Z,145
2016-09-08T08:04:36.763Z,145
2016-09-08T08:05:36.766Z,145
2016-09-08T08:06:36.799Z,145
2016-09-08T08:07:36.779Z,145
2016-09-08T08:08:36.812Z,145
2016-09-08T08:09:36.749Z,145
2016-09-08T08:10:36.788Z,145
2016-09-08T08:11:36.808Z,145
2016-09-08T08:12:36.798Z,145
2016-09-08T08:13:36.805Z,145
2016-09-08T08:14:36.813Z,145
2016-09-08T08:15:36.763Z,145
2016-09-08T08:16:36.765Z,145
2016-09-08T08:17:36.846Z,145
2016-09-08T08:18:36.832Z,145
2016-09-08T08:19:36.781Z,145
2016-09-08T08:20:36.807Z,145
2016-09-08T08:21:36.784Z,145
2016-09-08T08:22:36.791Z,145
2016-09-08T08:23:36.814Z,145
2016-09-08T08:24:36.815Z,145
2016-09-08T08:25:36.814Z,145
2016-09-08T08:26:36.803Z,145
2016-09-08T08:27:36.798Z,145
2016-09-08T08:28:36.764Z,145
2016-09-08T08:29:36.791Z,140
2016-09-08T08:30:36.796Z,140
2016-09-08T08:31:36.812Z,145
2016-09-08T08:32:36.795Z,140
2016-09-08T08:33:36.780Z,145
2016-09-08T08:34:36.861Z,140
2016-09-08T08:35:36.782Z,140
2016-09-08T08:36:36.812Z,145
2016-09-08T08:37:36.811Z,145
2016-09-08T08:38:36.814Z,145
2016-09-08T08:39:36.785Z,140
2016-09-08T08:40:36.793Z,145
2016-09-08T08:41:36.867Z,140
2016-09-08T08:42:36.801Z,145
2016-09-08T08:43:36.824Z,140
2016-09-08T08:44:36.799Z,140
2016-09-08T08:45:36.870Z,140
2016-09-08T08:46:36.876Z,145
2016-09-08T08:47:36.869Z,145
2016-09-08T08:48:36.854Z,140
2016-09-08T08:49:36.858Z,140
2016-09-08T08:50:36.840Z,140
2016-09-08T08:51:36.850Z,145
2016-09-08T08:52:36.787Z,145
2016-09-08T08:53:36.853Z,140
2016-09-08T08:54:36.827Z,140
2016-09-08T08:55:36.808Z,140
2016-09-08T08:56:36.953Z,140
2016-09-08T08:57:36.980Z,140
2016-09-08T08:58:36.824Z,140
2016-09-08T08:59:37.229Z,140
2016-09-08T09:00:36.858Z,135
2016-09-08T09:01:36.878Z,135
2016-09-08T09:02:36.825Z,135
2016-09-08T09:03:36.877Z,135
2016-09-08T09:04:36.879Z,135
2016-09-08T09:05:36.869Z,135
2016-09-08T09:06:36.868Z,135
2016-09-08T09:07:36.930Z,135
2016-09-08T09:08:36.938Z,140
2016-09-08T09:09:36.842Z,135
2016-09-08T09:10:36.839Z,135
2016-09-08T09:11:36.842Z,135
2016-09-08T09:12:36.931Z,135
2016-09-08T09:13:36.992Z,135
2016-09-08T09:14:36.842Z,135
2016-09-08T09:15:36.869Z,135
2016-09-08T09:16:36.859Z,135
2016-09-08T09:17:36.922Z,135
2016-09-08T09:18:36.857Z,135
2016-09-08T09:19:36.886Z,135
2016-09-08T09:20:36.947Z,135
2016-09-08T09:21:36.890Z,135
2016-09-08T09:22:36.886Z,135
2016-09-08T09:23:36.904Z,135
2016-09-08T09:24:36.872Z,135
2016-09-08T09:25:36.909Z,135
2016-09-08T09:26:36.856Z,135
2016-09-08T09:27:36.846Z,135
2016-09-08T09:28:36.857Z,135
2016-09-08T09:29:36.872Z,135
2016-09-08T09:30:36.837Z,135
2016-09-08T09:31:36.858Z,140
2016-09-08T09:32:36.851Z,140
2016-09-08T09:33:36.896Z,140
2016-09-08T09:34:36.907Z,135
2016-09-08T09:35:36.885Z,135
2016-09-08T09:36:36.909Z,135
2016-09-08T09:37:36.894Z,135
2016-09-08T09:38:36.863Z,135
2016-09-08T09:39:36.886Z,140
2016-09-08T09:40:36.862Z,135
2016-09-08T09:41:36.934Z,135
2016-09-08T09:42:36.875Z,135
2016-09-08T09:43:36.920Z,135
2016-09-08T09:44:36.848Z,135
2016-09-08T09:45:36.862Z,135
2016-09-08T09:46:36.904Z,135
2016-09-08T09:47:36.907Z,135
2016-09-08T09:48:36.885Z,135
2016-09-08T09:49:36.890Z,135
2016-09-08T09:50:36.891Z,130
2016-09-08T09:51:36.858Z,135
2016-09-08T09:52:36.984Z,135
2016-09-08T09:53:36.921Z,135
2016-09-08T09:54:36.892Z,135
2016-09-08T09:55:36.905Z,135
2016-09-08T09:56:36.922Z,135
2016-09-08T09:57:36.934Z,135
2016-09-08T09:58:36.909Z,135
2016-09-08T09:59:36.913Z,135
2016-09-08T10:00:36.844Z,135
2016-09-08T10:01:36.879Z,135
2016-09-08T10:02:36.951Z,130
2016-09-08T10:03:36.890Z,135
2016-09-08T10:04:36.889Z,135
2016-09-08T10:05:36.874Z,135
2016-09-08T10:06:36.863Z,135
2016-09-08T10:07:36.888Z,135
2016-09-08T10:08:36.905Z,135
2016-09-08T10:09:36.938Z,135
2016-09-08T10:10:36.888Z,135
2016-09-08T10:11:37.590Z,135
2016-09-08T10:12:36.896Z,135
2016-09-08T10:13:36.908Z,135
2016-09-08T10:14:36.885Z,135
2016-09-08T10:15:36.907Z,135
2016-09-08T10:16:36.912Z,135
2016-09-08T10:17:36.891Z,135
2016-09-08T10:18:36.920Z,135
2016-09-08T10:19:36.955Z,135
2016-09-08T10:20:36.892Z,135
2016-09-08T10:21:36.956Z,140
2016-09-08T10:22:36.911Z,140
2016-09-08T10:23:36.941Z,135
2016-09-08T10:24:36.905Z,135
2016-09-08T10:25:36.905Z,135
2016-09-08T10:26:37.474Z,135
2016-09-08T10:27:36.899Z,135
2016-09-08T10:28:36.948Z,135
2016-09-08T10:29:36.954Z,135
2016-09-08T10:30:36.909Z,135
2016-09-08T10:31:36.893Z,135
2016-09-08T10:32:36.918Z,140
2016-09-08T10:33:36.899Z,140
2016-09-08T10:34:36.987Z,135
2016-09-08T10:35:36.931Z,140
2016-09-08T10:36:37.018Z,135
2016-09-08T10:37:36.955Z,135
2016-09-08T10:38:36.966Z,135
2016-09-08T10:39:36.917Z,140
2016-09-08T10:40:36.939Z,140
2016-09-08T10:41:36.920Z,140
2016-09-08T10:42:37.461Z,145
2016-09-08T10:43:36.997Z,140
2016-09-08T10:44:36.971Z,140
2016-09-08T10:45:37.035Z,135
2016-09-08T10:46:36.940Z,135
2016-09-08T10:47:36.985Z,135
2016-09-08T10:48:36.940Z,135
2016-09-08T10:49:36.945Z,135
2016-09-08T10:50:36.950Z,135
2016-09-08T10:51:36.952Z,145
2016-09-08T10:52:36.941Z,140
2016-09-08T10:53:37.001Z,140
2016-09-08T10:54:36.961Z,140
2016-09-08T10:55:37.003Z,140
2016-09-08T10:56:37.308Z,135
2016-09-08T10:57:37.045Z,135
2016-09-08T10:58:37.073Z,135
2016-09-08T10:59:37.042Z,135
2016-09-08T11:00:37.027Z,135
2016-09-08T11:01:36.970Z,135
2016-09-08T11:02:36.964Z,135
2016-09-08T11:03:36.963Z,140
2016-09-08T11:04:37.002Z,135
2016-09-08T11:05:37.018Z,135
2016-09-08T11:06:36.926Z,135
2016-09-08T11:07:37.017Z,135
2016-09-08T11:08:36.946Z,135
2016-09-08T11:09:37.001Z,135
2016-09-08T11:10:37.007Z,135
2016-09-08T11:11:37.013Z,135
2016-09-08T11:12:36.999Z,140
2016-09-08T11:13:37.029Z,140
2016-09-08T11:14:36.968Z,140
2016-09-08T11:15:37.049Z,140
2016-09-08T11:16:37.034Z,140
2016-09-08T11:17:36.925Z,140
2016-09-08T11:18:37.007Z,135
2016-09-08T11:19:37.072Z,135
2016-09-08T11:20:37.037Z,135
2016-09-08T11:21:37.125Z,140
2016-09-08T11:22:37.012Z,140
2016-09-08T11:23:37.000Z,140
2016-09-08T11:24:36.990Z,140
2016-09-08T11:25:36.967Z,135
2016-09-08T11:26:37.070Z,135
2016-09-08T11:27:36.999Z,130
2016-09-08T11:28:37.084Z,130
2016-09-08T11:29:37.030Z,125
2016-09-08T11:30:37.167Z,125
2016-09-08T11:31:37.050Z,125
2016-09-08T11:32:37.036Z,125
2016-09-08T11:33:37.075Z,125
2016-09-08T11:34:37.083Z,125
2016-09-08T11:35:36.971Z,125
2016-09-08T11:36:37.034Z,125
2016-09-08T11:37:37.029Z,125
2016-09-08T11:38:37.034Z,125
2016-09-08T11:39:36.996Z,125
2016-09-08T11:40:37.062Z,125
2016-09-08T11:41:36.986Z,125
2016-09-08T11:42:37.107Z,125
2016-09-08T11:43:37.052Z,125
2016-09-08T11:44:37.134Z,125
2016-09-08T11:45:37.190Z,125
2016-09-08T11:46:37.192Z,125
2016-09-08T11:47:37.189Z,125
2016-09-08T11:48:37.216Z,125
2016-09-08T11:49:37.106Z,125
2016-09-08T11:50:37.195Z,125
2016-09-08T11:51:37.104Z,125
2016-09-08T11:52:37.073Z,125
2016-09-08T11:53:37.004Z,125
2016-09-08T11:54:37.089Z,125
2016-09-08T11:55:37.102Z,125
2016-09-08T11:56:37.053Z,120
2016-09-08T11:57:37.229Z,125
2016-09-08T11:58:37.110Z,125
2016-09-08T11:59:37.021Z,125
2016-09-08T12:00:37.053Z,125
2016-09-08T12:01:37.132Z,125
2016-09-08T12:02:37.052Z,125
2016-09-08T12:03:37.105Z,125
2016-09-08T12:04:37.052Z,125
2016-09-08T12:05:37.033Z,125
2016-09-08T12:06:36.993Z,125
2016-09-08T12:07:37.038Z,125
2016-09-08T12:08:37.017Z,125
2016-09-08T12:09:37.038Z,125
2016-09-08T12:10:37.066Z,125
2016-09-08T12:11:37.021Z,125
2016-09-08T12:12:37.030Z,125
2016-09-08T12:13:37.022Z,125
2016-09-08T12:14:37.090Z,125
2016-09-08T12:15:37.065Z,125
2016-09-08T12:16:37.074Z,125
2016-09-08T12:17:37.180Z,125
2016-09-08T12:18:37.063Z,125
2016-09-08T12:19:37.061Z,125
2016-09-08T12:20:37.036Z,125
2016-09-08T12:21:37.045Z,125
2016-09-08T12:22:37.050Z,125
2016-09-08T12:23:37.043Z,125
2016-09-08T12:24:37.041Z,125
2016-09-08T12:25:37.049Z,125
2016-09-08T12:26:37.063Z,125
2016-09-08T12:27:37.128Z,125
2016-09-08T12:28:37.031Z,125
2016-09-08T12:29:37.043Z,125
2016-09-08T12:30:37.050Z,125
2016-09-08T12:31:37.051Z,125
2016-09-08T12:32:37.034Z,125
2016-09-08T12:33:37.047Z,125
2016-09-08T12:34:37.065Z,125
2016-09-08T12:35:37.026Z,125
2016-09-08T12:36:37.093Z,125
2016-09-08T12:37:37.072Z,130
2016-09-08T12:38:37.098Z,125
2016-09-08T12:39:37.063Z,125
2016-09-08T12:40:37.098Z,125
2016-09-08T12:41:37.046Z,125
2016-09-08T12:42:37.066Z,125
2016-09-08T12:43:37.058Z,125
2016-09-08T12:44:37.068Z,130
2016-09-08T12:45:37.133Z,125
2016-09-08T12:46:37.061Z,125
2016-09-08T12:47:37.058Z,125
2016-09-08T12:48:37.062Z,125
2016-09-08T12:49:37.128Z,125
2016-09-08T12:50:37.138Z,125
2016-09-08T12:51:37.055Z,125
2016-09-08T12:52:37.139Z,120
2016-09-08T12:53:37.059Z,125
2016-09-08T12:54:37.083Z,125
2016-09-08T12:55:37.300Z,125
2016-09-08T12:56:37.381Z,125
2016-09-08T12:57:37.171Z,125
2016-09-08T12:58:37.069Z,125
2016-09-08T12:59:37.067Z,125
2016-09-08T13:00:38.260Z,125
2016-09-08T13:01:37.242Z,125
2016-09-08T13:02:37.362Z,125
2016-09-08T13:03:37.834Z,130
2016-09-08T13:04:37.351Z,135
2016-09-08T13:05:37.171Z,130
2016-09-08T13:06:37.127Z,130
2016-09-08T13:07:37.311Z,120
2016-09-08T13:08:38.095Z,125
2016-09-08T13:09:37.596Z,125
2016-09-08T13:10:38.315Z,125
2016-09-08T13:11:37.625Z,130
2016-09-08T13:12:37.421Z,130
2016-09-08T13:13:38.026Z,130
2016-09-08T13:14:37.092Z,130
2016-09-08T13:15:37.341Z,130
2016-09-08T13:16:37.781Z,130
2016-09-08T13:17:38.497Z,130
2016-09-08T13:18:37.172Z,130
2016-09-08T13:19:37.159Z,130
2016-09-08T13:20:37.318Z,135
2016-09-08T13:21:37.172Z,145
2016-09-08T13:22:37.529Z,150
2016-09-08T13:23:37.397Z,150
2016-09-08T13:24:37.109Z,140
2016-09-08T13:25:37.131Z,130
2016-09-08T13:26:37.601Z,140
2016-09-08T13:27:37.897Z,145
2016-09-08T13:28:38.457Z,140
2016-09-08T13:29:37.682Z,145
2016-09-08T13:30:38.445Z,145
2016-09-08T13:31:37.114Z,140
2016-09-08T13:32:37.115Z,130
2016-09-08T13:33:39.103Z,130
2016-09-08T13:34:37.524Z,130
2016-09-08T13:35:37.126Z,140
2016-09-08T13:36:37.379Z,140
2016-09-08T13:37:37.971Z,135
2016-09-08T13:38:37.123Z,130
2016-09-08T13:39:37.184Z,130
2016-09-08T13:40:37.974Z,130
2016-09-08T13:41:37.174Z,130
2016-09-08T13:42:38.150Z,125
2016-09-08T13:43:37.245Z,125
2016-09-08T13:44:37.401Z,130
2016-09-08T13:45:37.216Z,130
2016-09-08T13:46:37.206Z,130
2016-09-08T13:47:37.182Z,130
2016-09-08T13:48:37.306Z,130
2016-09-08T13:49:38.200Z,130
2016-09-08T13:50:37.205Z,130
2016-09-08T13:51:37.280Z,130
2016-09-08T13:52:37.519Z,130
2016-09-08T13:53:38.013Z,130
2016-09-08T13:54:38.123Z,130
2016-09-08T13:55:37.191Z,130
2016-09-08T13:56:37.189Z,130
2016-09-08T13:57:37.505Z,130
2016-09-08T13:58:37.203Z,130
2016-09-08T13:59:37.203Z,130
2016-09-08T14:00:37.231Z,130
2016-09-08T14:01:37.207Z,130
2016-09-08T14:02:37.247Z,130
2016-09-08T14:03:40.072Z,130
2016-09-08T14:04:39.892Z,130
2016-09-08T14:05:37.507Z,130
2016-09-08T14:06:38.251Z,130
2016-09-08T14:07:38.331Z,130
2016-09-08T14:08:38.046Z,130